ADDS METAR Data INFO
IDs: Format: Raw Decoded Include TAF

Data at: 1813 UTC 19 Oct 2017

KF05 191755Z AUTO 18010G14KT 10SM CLR 25/09 A3012 RMK AO1 T02480085 10297 20052
KF05 191735Z AUTO 17011KT 10SM CLR 24/08 A3013 RMK AO1 T02440084
KF05 191715Z AUTO 16012G16KT 10SM CLR 25/09 A3013 RMK AO1 T02500087
KF05 191655Z AUTO 19011G17KT 150V210 10SM CLR 24/09 A3013 RMK AO1 T02410087
KF05 191635Z AUTO 19010G15KT 10SM CLR 23/08 A3014 RMK AO1 T02310084
KF05 191615Z AUTO 19009G14KT 10SM CLR 22/08 A3015 RMK AO1 T02220080
KF05 191555Z AUTO 19008KT 10SM CLR 21/08 A3015 RMK AO1 T02070076
KF05 191535Z AUTO 18007KT 10SM CLR 20/07 A3015 RMK AO1 T01970071
KF05 191515Z AUTO 17008KT 10SM CLR 19/07 A3014 RMK AO1 T01880070
KF05 191455Z AUTO 17006KT 10SM CLR 19/07 A3014 RMK AO1 T01850072
KF05 191435Z AUTO 17006KT 10SM CLR 17/08 A3014 RMK AO1 T01680076
KF05 191415Z AUTO 00000KT 10SM CLR 15/08 A3014 RMK AO1 T01490077
KF05 191355Z AUTO 00000KT 10SM CLR 13/08 A3013 RMK AO1 T01260080
KF05 191335Z AUTO 00000KT 10SM CLR 11/07 A3012 RMK AO1 T01090070
KF05 191315Z AUTO 00000KT 10SM CLR 12/06 A3011 RMK AO1 T01170063
KF05 191255Z AUTO 13003KT 10SM CLR 12/06 A3011 RMK AO1 T01170062
KF05 191235Z AUTO 00000KT 10SM CLR 11/06 A3010 RMK AO1 T01120062
KF05 191215Z AUTO 15003KT 10SM CLR 11/06 A3010 RMK AO1 T01130063
KF05 191155Z AUTO 17005KT 10SM CLR 11/06 A3010 RMK AO1 T01110057 10297 20052
KF05 191135Z AUTO 00000KT 10SM CLR 12/06 A3010 RMK AO1 T01170057
KF05 191115Z AUTO 15003KT 10SM CLR 11/06 A3009 RMK AO1 T01090059
KF05 191055Z AUTO 00000KT 10SM CLR 12/06 A3009 RMK AO1 T01170056
KF05 191035Z AUTO 14003KT 10SM CLR 12/06 A3008 RMK AO1 T01240055
KF05 191015Z AUTO 00000KT 10SM CLR 14/06 A3008 RMK AO1 T01400055
KF05 190955Z AUTO 14003KT 10SM CLR 14/06 A3007 RMK AO1 T01440055
KF05 190935Z AUTO 00000KT 10SM CLR 14/05 A3007 RMK AO1 T01390054
KF05 190915Z AUTO 00000KT 10SM CLR 15/06 A3007 RMK AO1 T01460055
KF05 190855Z AUTO 15003KT 10SM CLR 14/06 A3007 RMK AO1 T01370058
KF05 190835Z AUTO 00000KT 10SM CLR 15/06 A3007 RMK AO1 T01460056
KF05 190815Z AUTO 12003KT 10SM CLR 15/06 A3007 RMK AO1 T01530055
KF05 190755Z AUTO 12003KT 10SM CLR 15/06 A3007 RMK AO1 T01540056
KF05 190735Z AUTO 16004KT 10SM CLR 16/06 A3006 RMK AO1 T01550056
KF05 190715Z AUTO 17005KT 10SM CLR 16/06 A3006 RMK AO1 T01580055
KF05 190655Z AUTO 18005KT 10SM CLR 17/05 A3006 RMK AO1 T01680052
KF05 190635Z AUTO 17007KT 10SM CLR 18/05 A3006 RMK AO1 T01770048
KF05 190615Z AUTO 16008KT 10SM CLR 18/05 A3005 RMK AO1 T01820047
KF05 190555Z AUTO 16009KT 10SM CLR 19/05 A3005 RMK AO1 T01860045 10297 20052 402970052
KF05 190535Z AUTO 15009KT 10SM CLR 19/04 A3005 RMK AO1 T01910043
KF05 190515Z AUTO 15011KT 10SM CLR 19/04 A3005 RMK AO1 T01930040
KF05 190455Z AUTO 15010KT 10SM CLR 20/04 A3006 RMK AO1 T01960038
KF05 190435Z AUTO 15010KT 10SM CLR 20/04 A3006 RMK AO1 T01990035
KF05 190415Z AUTO 15010KT 10SM CLR 20/03 A3006 RMK AO1 T02000033
KF05 190355Z AUTO 15009KT 10SM CLR 20/03 A3005 RMK AO1 T02030029
KF05 190335Z AUTO 15010KT 10SM CLR 21/02 A3005 RMK AO1 T02090024
KF05 190315Z AUTO 14012KT 10SM CLR 21/02 A3005 RMK AO1 T02100021
KF05 190255Z AUTO 15011KT 10SM CLR 21/02 A3004 RMK AO1 T02060024
KF05 190235Z AUTO 14009KT 10SM CLR 20/03 A3004 RMK AO1 T01990033
KF05 190215Z AUTO 14007KT 10SM CLR 20/04 A3004 RMK AO1 T01980040
KF05 190155Z AUTO 12005KT 10SM CLR 20/05 A3004 RMK AO1 T01960048
KF05 190135Z AUTO 12006KT 10SM CLR 20/05 A3004 RMK AO1 T02030048
KF05 190115Z AUTO 12004KT 10SM CLR 21/05 A3003 RMK AO1 T02090048
KF05 190055Z AUTO 12005KT 10SM CLR 22/05 A3003 RMK AO1 T02170049
KF05 190035Z AUTO 12005KT 10SM CLR 22/05 A3002 RMK AO1 T02240048
KF05 190015Z AUTO 13004KT 10SM CLR 24/04 A3002 RMK AO1 T02350042
KF05 182355Z AUTO 13007KT 10SM CLR 24/03 A3000 RMK AO1 T02440032 10297 20052
KF05 182335Z AUTO 14006KT 10SM CLR 26/02 A3000 RMK AO1 T02600015
KF05 182315Z AUTO 14009KT 10SM CLR 28/M01 A3000 RMK AO1 T02771007
KF05 182255Z AUTO 15010G15KT 10SM CLR 29/M01 A3000 RMK AO1 T02861006
KF05 182235Z AUTO 16013KT 10SM CLR 29/00 A3000 RMK AO1 T02860000
KF05 182215Z AUTO 16012KT 10SM CLR 29/01 A3000 RMK AO1 T02860005
KF05 182155Z AUTO 16014KT 10SM CLR 29/01 A3000 RMK AO1 T02900007
KF05 182135Z AUTO 16011G19KT 10SM CLR 29/01 A3000 RMK AO1 T02920008
KF05 182115Z AUTO 17014KT 10SM CLR 30/01 A3000 RMK AO1 T02950007
KF05 182055Z AUTO 17011G17KT 10SM CLR 30/00 A3000 RMK AO1 T02970004
KF05 182035Z AUTO 18011G18KT 10SM CLR 29/00 A3000 RMK AO1 T02931005
KF05 182015Z AUTO 18015G18KT 10SM CLR 29/M01 A3001 RMK AO1 T02851008
KF05 181955Z AUTO 18013G18KT 10SM CLR 28/00 A3002 RMK AO1 T02790001
KF05 181935Z AUTO 18013KT 10SM CLR 28/01 A3003 RMK AO1 T02750012
KF05 181915Z AUTO 18011KT 10SM CLR 27/02 A3004 RMK AO1 T02680018
KF05 181855Z AUTO 17011G19KT 10SM CLR 27/01 A3005 RMK AO1 T02660013
KF05 181835Z AUTO 18010G14KT 10SM CLR 27/01 A3006 RMK AO1 T02650010
KF05 181815Z AUTO 17010KT 10SM CLR 26/02 A3007 RMK AO1 T02570015
KF05 181755Z AUTO 17011KT 10SM CLR 25/02 A3008 RMK AO1 T02530017 10270 20052
KF05 181735Z AUTO 19010G15KT 10SM CLR 25/02 A3009 RMK AO1 T02480017
KF05 181715Z AUTO 17009G16KT 10SM CLR 24/02 A3009 RMK AO1 T02410022
KF05 181655Z AUTO 20009KT 10SM CLR 23/02 A3009 RMK AO1 T02330021
KF05 181635Z AUTO 18010KT 10SM CLR 23/02 A3010 RMK AO1 T02260021
KF05 181615Z AUTO 20011KT 10SM CLR 22/03 A3010 RMK AO1 T02150030
KF05 181555Z AUTO 19010KT 10SM CLR 20/04 A3010 RMK AO1 T02010043
KF05 181535Z AUTO 18007KT 10SM CLR 19/05 A3010 RMK AO1 T01870052
KF05 181515Z AUTO 18007KT 10SM CLR 17/06 A3010 RMK AO1 T01690055
KF05 181455Z AUTO 18005KT 10SM CLR 15/06 A3010 RMK AO1 T01540056
KF05 181435Z AUTO 17006KT 10SM CLR 14/06 A3010 RMK AO1 T01380059
KF05 181415Z AUTO 18005KT 10SM CLR 13/06 A3010 RMK AO1 T01250058
KF05 181355Z AUTO 17004KT 10SM CLR 11/06 A3009 RMK AO1 T01140059
KF05 181335Z AUTO 17003KT 10SM CLR 11/05 A3009 RMK AO1 T01050053
KF05 181315Z AUTO 00000KT 10SM CLR 10/05 A3009 RMK AO1 T00980048
KF05 181255Z AUTO 00000KT 10SM CLR 10/05 A3008 RMK AO1 T00970048
KF05 181235Z AUTO 17003KT 10SM CLR 09/05 A3008 RMK AO1 T00930046
KF05 181215Z AUTO 17004KT 10SM CLR 10/05 A3007 RMK AO1 T01010047
KF05 181155Z AUTO 17003KT 10SM CLR 10/05 A3008 RMK AO1 T01040049 10270 20052
KF05 181135Z AUTO 00000KT 10SM CLR 10/05 A3008 RMK AO1 T00960049
KF05 181115Z AUTO 00000KT 10SM CLR 10/05 A3007 RMK AO1 T01000050
KF05 181055Z AUTO 18004KT 10SM CLR 10/05 A3006 RMK AO1 T01010050
KF05 181035Z AUTO 17005KT 10SM CLR 10/05 A3006 RMK AO1 T01040051
KF05 181015Z AUTO 18007KT 10SM CLR 11/05 A3006 RMK AO1 T01090051
KF05 180955Z AUTO 17007KT 10SM CLR 11/05 A3006 RMK AO1 T01140052
KF05 180935Z AUTO 18006KT 10SM CLR 12/05 A3006 RMK AO1 T01160052
KF05 180915Z AUTO 18007KT 10SM CLR 11/05 A3007 RMK AO1 T01120053
KF05 180855Z AUTO 18006KT 10SM CLR 11/05 A3007 RMK AO1 T01140053
KF05 180835Z AUTO 17007KT 10SM CLR 11/05 A3008 RMK AO1 T01140053
KF05 180815Z AUTO 18006KT 10SM CLR 11/05 A3008 RMK AO1 T01140052
KF05 180755Z AUTO 17007KT 10SM CLR 12/05 A3009 RMK AO1 T01180052
KF05 180735Z AUTO 18006KT 10SM CLR 12/05 A3009 RMK AO1 T01200052
KF05 180715Z AUTO 19004KT 10SM CLR 12/05 A3009 RMK AO1 T01230054
KF05 180655Z AUTO 18005KT 10SM CLR 13/05 A3009 RMK AO1 T01280053
KF05 180635Z AUTO 16006KT 10SM CLR 13/05 A3008 RMK AO1 T01340053
KF05 180615Z AUTO 17007KT 10SM CLR 14/05 A3008 RMK AO1 T01400053